Time;durP1;ratioP1;P1;durP2;ratioP2;P2;SDS_P1;SDS_P2;PMS_P1;PMS_P2;Temp;Humidity;BMP_temperature;BMP_pressure;BME280_temperature;BME280_humidity;BME280_pressure;Samples;Min_cycle;Max_cycle;Signal;HPM_P1;HPM_P2
2021/03/09 00:00:15;;;;;;;;;;;;;;;2.17;59.29;100305.44;4399186;32;19988;-96
2021/03/09 00:02:41;;;;;;;;;;;;;;;2.19;59.29;100308.00;4404947;32;20015;-96
2021/03/09 00:05:07;;;;;;;;;;;;;;;1.97;59.28;100307.78;4414956;32;19977;-96
2021/03/09 00:07:32;;;;;;;;;;;;;;;1.83;59.28;100317.88;4401386;32;19983;-96
2021/03/09 00:10:07;;;;;;;;;;;;;;;1.84;59.28;100309.31;4403402;32;20005;-96
2021/03/09 00:12:38;;;;;;;;;;;;;;;1.92;59.29;100317.12;4436325;32;19953;-96
2021/03/09 00:15:21;;;;;;;;;;;;;;;1.78;59.27;100314.38;4421483;32;19949;-96
2021/03/09 00:17:48;;;;;;;;;;;;;;;1.94;59.28;100315.44;4434599;32;19993;-96
2021/03/09 00:20:37;;;;;;;;;;;;;;;1.85;59.28;100315.31;4421092;32;19989;-96
2021/03/09 00:23:22;;;;;;;;;;;;;;;1.76;59.27;100313.50;4434563;32;19957;-96
2021/03/09 00:26:17;;;;;;;;;;;;;;;1.74;59.27;100317.75;4436841;32;19964;-96
2021/03/09 00:29:02;;;;;;;;;;;;;;;1.76;59.26;100318.63;4428174;32;20000;-96
2021/03/09 00:31:27;;;;;;;;;;;;;;;1.57;59.26;100310.69;4399134;32;19985;-96
2021/03/09 00:33:53;;;;;;;;;;;;;;;1.57;59.26;100311.53;4398229;32;20013;-96
2021/03/09 00:36:18;;;;;;;;;;;;;;;1.42;59.26;100307.09;4397540;32;19981;-96
2021/03/09 00:38:43;;;;;;;;;;;;;;;1.43;59.25;100308.81;4398246;32;20019;-92
2021/03/09 00:41:08;;;;;;;;;;;;;;;1.37;59.25;100310.41;4397366;32;25874;-94
2021/03/09 00:43:34;;;;;;;;;;;;;;;1.42;59.26;100308.75;4397665;32;19986;-94
2021/03/09 00:45:59;;;;;;;;;;;;;;;1.36;59.25;100312.09;4398340;32;19996;-93
2021/03/09 00:48:25;;;;;;;;;;;;;;;1.36;59.25;100309.53;4423252;32;19989;-92
2021/03/09 00:50:50;;;;;;;;;;;;;;;1.32;59.24;100317.19;4397611;32;20001;-94
2021/03/09 00:53:15;;;;;;;;;;;;;;;1.40;59.25;100313.88;4397700;32;20282;-93
2021/03/09 00:55:41;;;;;;;;;;;;;;;1.29;59.24;100317.12;4397557;32;20455;-93
2021/03/09 00:58:06;;;;;;;;;;;;;;;1.39;59.24;100312.13;4398245;32;19996;-94
2021/03/09 01:00:31;;;;;;;;;;;;;;;1.26;59.25;100315.37;4397365;32;28566;-95
2021/03/09 01:02:57;;;;;;;;;;;;;;;1.10;59.23;100310.88;4400462;32;19978;-95
2021/03/09 01:05:22;;;;;;;;;;;;;;;1.05;59.23;100310.81;4400349;32;20074;-94
2021/03/09 01:07:47;;;;;;;;;;;;;;;1.01;59.22;100310.75;4400053;32;19996;-94
2021/03/09 01:10:13;;;;;;;;;;;;;;;0.92;59.22;100319.13;4400164;32;20025;-92
2021/03/09 01:12:38;;;;;;;;;;;;;;;0.84;59.22;100306.19;4400189;32;19993;-94
2021/03/09 01:15:04;;;;;;;;;;;;;;;0.81;59.21;100303.59;4400076;32;19977;-95
2021/03/09 01:17:29;;;;;;;;;;;;;;;0.70;59.21;100310.22;4400138;32;19993;-94
2021/03/09 01:19:54;;;;;;;;;;;;;;;0.66;59.21;100303.31;4399690;32;20031;-94
2021/03/09 01:22:20;;;;;;;;;;;;;;;0.79;59.21;100302.72;4399930;32;19989;-93
2021/03/09 01:24:45;;;;;;;;;;;;;;;0.84;59.22;100300.22;4399954;32;19981;-94
2021/03/09 01:27:11;;;;;;;;;;;;;;;0.89;59.22;100296.88;4399658;32;22163;-93
2021/03/09 01:29:36;;;;;;;;;;;;;;;0.53;59.20;100294.59;4400171;32;20313;-93
2021/03/09 01:32:02;;;;;;;;;;;;;;;0.66;59.21;100290.53;4399532;32;20004;-94
2021/03/09 01:34:27;;;;;;;;;;;;;;;0.61;59.21;100297.28;4399969;32;19984;-93
2021/03/09 01:36:52;;;;;;;;;;;;;;;0.74;59.20;100293.22;4412656;32;20048;-94
2021/03/09 01:39:17;;;;;;;;;;;;;;;0.69;59.21;100290.56;4399962;32;19997;-94
2021/03/09 01:41:43;;;;;;;;;;;;;;;0.69;59.21;100287.13;4400475;32;20048;-95
2021/03/09 01:44:08;;;;;;;;;;;;;;;0.67;59.21;100291.37;4400210;32;23080;-95
2021/03/09 01:46:33;;;;;;;;;;;;;;;0.65;59.20;100290.50;4401020;32;19985;-95
2021/03/09 01:48:58;;;;;;;;;;;;;;;0.33;59.19;100290.81;4400522;32;19981;-95
2021/03/09 01:51:24;;;;;;;;;;;;;;;0.42;59.19;100285.84;4400251;32;20007;-94
2021/03/09 01:53:49;;;;;;;;;;;;;;;0.33;59.19;100279.72;4399313;32;23375;-94
2021/03/09 01:56:14;;;;;;;;;;;;;;;0.33;59.19;100279.72;4400742;32;20066;-95
2021/03/09 01:58:40;;;;;;;;;;;;;;;0.24;59.18;100275.31;4400008;32;20031;-94
2021/03/09 02:01:05;;;;;;;;;;;;;;;0.18;59.18;100272.59;4400193;32;20023;-94
2021/03/09 02:03:30;;;;;;;;;;;;;;;0.33;59.19;100277.16;4400895;32;19981;-96
2021/03/09 02:05:56;;;;;;;;;;;;;;;0.15;59.17;100281.09;4400226;32;23065;-96
2021/03/09 02:08:21;;;;;;;;;;;;;;;0.04;59.17;100279.19;4400729;32;19985;-95
2021/03/09 02:10:46;;;;;;;;;;;;;;;-0.03;59.17;100273.94;4408673;32;20327;-95
2021/03/09 02:13:11;;;;;;;;;;;;;;;-0.01;59.16;100277.37;4398375;32;22140;-94
2021/03/09 02:15:40;;;;;;;;;;;;;;;0.07;59.17;100282.66;4412152;32;20012;-95
2021/03/09 02:18:07;;;;;;;;;;;;;;;0.18;59.18;100281.16;4412521;32;20062;-95
2021/03/09 02:20:33;;;;;;;;;;;;;;;0.11;59.17;100286.12;4400121;32;20021;-94
2021/03/09 02:23:05;;;;;;;;;;;;;;;0.07;59.17;100285.22;4411835;32;19999;-95
2021/03/09 02:25:50;;;;;;;;;;;;;;;-0.08;59.16;100282.38;4398735;32;20026;-94
2021/03/09 02:28:24;;;;;;;;;;;;;;;-0.05;59.17;100284.97;4399948;32;20055;-94
2021/03/09 02:30:50;;;;;;;;;;;;;;;-0.06;59.17;100280.69;4411709;32;20706;-94
2021/03/09 02:33:24;;;;;;;;;;;;;;;-0.10;59.16;100281.47;4400746;32;20026;-95
2021/03/09 02:35:54;;;;;;;;;;;;;;;-0.38;59.14;100280.06;4399908;32;20372;-93
2021/03/09 02:38:21;;;;;;;;;;;;;;;-0.36;59.15;100276.69;4399708;32;20011;-95
2021/03/09 02:40:46;;;;;;;;;;;;;;;-0.46;59.14;100272.25;4401412;32;19984;-95
2021/03/09 02:43:12;;;;;;;;;;;;;;;-0.45;59.14;100280.78;4399484;32;20634;-94
2021/03/09 02:45:37;;;;;;;;;;;;;;;-0.53;59.13;100279.75;4401420;32;19973;-93
2021/03/09 02:48:03;;;;;;;;;;;;;;;-0.49;59.15;100274.72;4399867;32;20279;-94
2021/03/09 02:50:28;;;;;;;;;;;;;;;-0.56;59.14;100272.88;4399990;32;20063;-95
2021/03/09 02:52:54;;;;;;;;;;;;;;;-0.45;59.14;100262.88;4399645;32;19992;-94
2021/03/09 02:55:20;;;;;;;;;;;;;;;-0.58;59.14;100269.41;4400958;32;19996;-93
2021/03/09 02:57:46;;;;;;;;;;;;;;;-0.55;59.13;100261.81;4399732;32;20033;-93
2021/03/09 03:00:11;;;;;;;;;;;;;;;-0.74;59.12;100268.22;4414395;32;20019;-96
2021/03/09 03:02:37;;;;;;;;;;;;;;;-0.66;59.13;100265.84;4405632;32;20000;-96
2021/03/09 03:05:07;;;;;;;;;;;;;;;-0.73;59.12;100274.19;4406549;32;20019;-94
2021/03/09 03:07:32;;;;;;;;;;;;;;;-0.71;59.13;100273.44;4412521;32;20591;-94
2021/03/09 03:09:58;;;;;;;;;;;;;;;-0.53;59.13;100272.94;4397037;32;20027;-93
2021/03/09 03:12:23;;;;;;;;;;;;;;;-0.59;59.13;100267.69;4397670;32;20009;-96
2021/03/09 03:14:48;;;;;;;;;;;;;;;-0.61;59.13;100266.81;4398155;32;19993;-95
2021/03/09 03:17:14;;;;;;;;;;;;;;;-0.68;59.12;100270.94;4397218;32;20002;-96
2021/03/09 03:19:39;;;;;;;;;;;;;;;-0.77;59.12;100272.41;4398004;32;20032;-96
2021/03/09 03:22:04;;;;;;;;;;;;;;;-0.79;59.13;100268.97;4397376;32;20272;-95
2021/03/09 03:24:29;;;;;;;;;;;;;;;-0.71;59.13;100268.31;4396257;32;19994;-96
2021/03/09 03:26:55;;;;;;;;;;;;;;;-0.72;59.12;100265.69;4397771;32;19985;-95
2021/03/09 03:29:20;;;;;;;;;;;;;;;-0.61;59.13;100271.91;4398370;32;20373;-96
2021/03/09 03:31:47;;;;;;;;;;;;;;;-0.84;59.12;100265.44;4385757;32;19988;-96
2021/03/09 03:34:12;;;;;;;;;;;;;;;-0.83;59.12;100270.59;4398491;32;19989;-95
2021/03/09 03:36:38;;;;;;;;;;;;;;;-0.84;59.12;100256.09;4386821;32;20020;-96
2021/03/09 03:39:04;;;;;;;;;;;;;;;-0.84;59.12;100268.88;4411275;32;20008;-96
2021/03/09 03:41:29;;;;;;;;;;;;;;;-0.98;59.11;100272.78;4397789;32;19970;-95
2021/03/09 03:43:54;;;;;;;;;;;;;;;-0.90;59.11;100272.97;4397584;32;20005;-96
2021/03/09 03:46:19;;;;;;;;;;;;;;;-1.08;59.11;100270.87;4398081;32;19977;-96
2021/03/09 03:48:46;;;;;;;;;;;;;;;-1.02;59.12;100269.31;4398102;32;20013;-96
2021/03/09 03:51:16;;;;;;;;;;;;;;;-1.01;59.11;100271.03;4397895;32;19984;-96
2021/03/09 03:54:00;;;;;;;;;;;;;;;-1.09;59.10;100270.00;4411105;32;19977;-96
2021/03/09 03:56:28;;;;;;;;;;;;;;;-1.07;59.11;100278.56;4409796;32;20610;-96
2021/03/09 03:58:55;;;;;;;;;;;;;;;-1.12;59.10;100280.16;4411084;32;20056;-95
2021/03/09 04:01:21;;;;;;;;;;;;;;;-1.29;59.10;100279.75;4397155;32;19986;-96
2021/03/09 04:03:47;;;;;;;;;;;;;;;-1.14;59.11;100286.91;4410398;32;19996;-96
2021/03/09 04:06:13;;;;;;;;;;;;;;;-1.13;59.10;100288.66;4398099;32;19985;-96
2021/03/09 04:08:39;;;;;;;;;;;;;;;-1.34;59.09;100289.00;4401073;32;19969;-96
2021/03/09 04:11:04;;;;;;;;;;;;;;;-1.19;59.10;100288.47;4412889;32;19995;-96
2021/03/09 04:14:02;;;;;;;;;;;;;;;-1.25;59.09;100285.78;4423157;32;19968;-96
2021/03/09 04:16:35;;;;;;;;;;;;;;;-1.33;59.09;100288.16;4437973;32;19976;-96
2021/03/09 04:19:14;;;;;;;;;;;;;;;-1.32;59.09;100283.91;4437947;32;19957;-96
2021/03/09 04:21:44;;;;;;;;;;;;;;;-1.39;59.08;100292.28;4438078;32;19968;-96
2021/03/09 04:24:42;;;;;;;;;;;;;;;-1.33;59.09;100290.72;4438463;32;19949;-96
2021/03/09 04:27:58;;;;;;;;;;;;;;;-1.41;59.09;100288.81;4438752;32;19957;-96
2021/03/09 04:30:32;;;;;;;;;;;;;;;-1.35;59.09;100294.94;4433176;32;20099;-96
2021/03/09 04:32:58;;;;;;;;;;;;;;;-1.53;59.07;100293.59;4414120;32;20330;-96
2021/03/09 04:35:49;;;;;;;;;;;;;;;-1.38;59.08;100294.00;4429884;32;19957;-96
2021/03/09 04:38:34;;;;;;;;;;;;;;;-1.52;59.08;100305.53;4406315;32;20001;-96
2021/03/09 04:41:04;;;;;;;;;;;;;;;-1.62;59.07;100295.09;4408559;32;20016;-96
2021/03/09 04:43:33;;;;;;;;;;;;;;;-1.66;59.07;100305.16;4417758;32;20023;-96
2021/03/09 04:48:53;;;;;;;;;;;;;;;-1.60;59.08;100296.00;4434499;32;20003;-95
2021/03/09 04:51:18;;;;;;;;;;;;;;;-1.52;59.09;100298.75;4404974;32;19980;-96
2021/03/09 04:53:43;;;;;;;;;;;;;;;-1.63;59.07;100301.03;4405364;32;19973;-96
2021/03/09 04:56:09;;;;;;;;;;;;;;;-1.68;59.06;100300.03;4416769;32;20010;-95
2021/03/09 04:58:34;;;;;;;;;;;;;;;-1.55;59.07;100296.12;4413060;32;20314;-93
2021/03/09 05:00:59;;;;;;;;;;;;;;;-1.64;59.07;100306.97;4409552;32;19989;-95
2021/03/09 05:03:27;;;;;;;;;;;;;;;-1.68;59.07;100306.81;4398999;32;19996;-89
2021/03/09 05:05:53;;;;;;;;;;;;;;;-1.71;59.06;100302.50;4399065;32;19991;-93
2021/03/09 05:08:18;;;;;;;;;;;;;;;-1.78;59.06;100310.84;4399960;32;19989;-93
2021/03/09 05:10:44;;;;;;;;;;;;;;;-1.73;59.07;100308.41;4400405;32;19989;-94
2021/03/09 05:13:09;;;;;;;;;;;;;;;-1.33;59.09;100302.63;4420688;32;19977;-95
2021/03/09 05:15:34;;;;;;;;;;;;;;;-1.58;59.08;100306.25;4400872;32;19986;-95
2021/03/09 05:18:00;;;;;;;;;;;;;;;-1.66;59.08;100310.28;4400721;32;20330;-96
2021/03/09 05:20:25;;;;;;;;;;;;;;;-1.68;59.07;100306.81;4398572;32;19996;-95
2021/03/09 05:22:50;;;;;;;;;;;;;;;-1.55;59.07;100307.19;4384750;32;19989;-94
2021/03/09 05:25:15;;;;;;;;;;;;;;;-1.46;59.08;100303.12;4385084;32;23844;-93
2021/03/09 05:27:41;;;;;;;;;;;;;;;-1.40;59.08;100304.16;4384803;32;19998;-93
2021/03/09 05:30:07;;;;;;;;;;;;;;;-1.43;59.09;100303.19;4384791;32;20337;-92
2021/03/09 05:32:32;;;;;;;;;;;;;;;-1.65;59.08;100307.78;4384694;32;20039;-93
2021/03/09 05:35:00;;;;;;;;;;;;;;;-1.56;59.07;100300.38;4384601;32;20585;-92
2021/03/09 05:37:25;;;;;;;;;;;;;;;-1.46;59.08;100303.12;4383351;32;20000;-92
2021/03/09 05:39:51;;;;;;;;;;;;;;;-1.38;59.08;100304.22;4381985;32;24833;-91
2021/03/09 05:42:16;;;;;;;;;;;;;;;-1.36;59.09;100298.31;4382680;32;20030;-90
2021/03/09 05:44:41;;;;;;;;;;;;;;;-1.32;59.09;100296.69;4382363;32;19997;-90
2021/03/09 05:47:09;;;;;;;;;;;;;;;-1.10;59.10;100303.19;4394099;32;21574;-90
2021/03/09 05:49:35;;;;;;;;;;;;;;;-1.21;59.10;100305.47;4407314;32;19985;-90
2021/03/09 05:52:00;;;;;;;;;;;;;;;-1.12;59.10;100305.69;4408571;32;21489;-91
2021/03/09 05:54:25;;;;;;;;;;;;;;;-1.11;59.10;100307.44;4382854;32;19974;-90
2021/03/09 05:56:54;;;;;;;;;;;;;;;-0.96;59.11;100312.88;4395643;32;20120;-90
2021/03/09 05:59:19;;;;;;;;;;;;;;;-0.97;59.11;100306.03;4395723;32;19989;-89
2021/03/09 06:01:47;;;;;;;;;;;;;;;-1.02;59.10;100320.41;4394803;32;22795;-92
2021/03/09 06:04:12;;;;;;;;;;;;;;;-0.89;59.12;100318.16;4408678;32;19992;-91
2021/03/09 06:06:37;;;;;;;;;;;;;;;-0.62;59.14;100323.88;4395042;32;31227;-91
2021/03/09 06:09:23;;;;;;;;;;;;;;;-0.59;59.13;100323.94;4395175;32;20016;-92
2021/03/09 06:12:05;;;;;;;;;;;;;;;-0.63;59.13;100323.03;4408454;32;20031;-92
2021/03/09 06:14:38;;;;;;;;;;;;;;;-0.41;59.15;100316.69;4395406;32;20053;-91
2021/03/09 06:17:03;;;;;;;;;;;;;;;-0.28;59.15;100310.09;4384397;32;20061;-90
2021/03/09 06:19:41;;;;;;;;;;;;;;;0.05;59.17;100317.59;4395934;32;20232;-90
2021/03/09 06:22:07;;;;;;;;;;;;;;;0.06;59.17;100315.91;4395383;32;19953;-91
2021/03/09 06:24:32;;;;;;;;;;;;;;;0.05;59.17;100315.06;4394341;32;27415;-91
2021/03/09 06:26:57;;;;;;;;;;;;;;;0.16;59.18;100320.34;4395002;32;19989;-91
2021/03/09 06:29:22;;;;;;;;;;;;;;;0.27;59.18;100322.31;4394944;32;31258;-90
2021/03/09 06:31:48;;;;;;;;;;;;;;;0.47;59.19;100317.50;4396138;32;30760;-94
2021/03/09 06:34:28;;;;;;;;;;;;;;;0.59;59.21;100320.31;4408968;32;20055;-92
2021/03/09 06:37:12;;;;;;;;;;;;;;;0.85;59.22;100327.56;4408672;32;19961;-92
2021/03/09 06:39:47;;;;;;;;;;;;;;;1.14;59.23;100322.88;4408423;32;20012;-92
2021/03/09 06:42:12;;;;;;;;;;;;;;;1.39;59.24;100321.53;4409115;32;19991;-92
2021/03/09 06:44:39;;;;;;;;;;;;;;;1.66;59.26;100321.94;4396460;32;19982;-92
2021/03/09 06:47:05;;;;;;;;;;;;;;;1.75;59.26;100319.47;4408941;32;20009;-92
2021/03/09 06:49:30;;;;;;;;;;;;;;;1.96;59.28;100320.59;4396441;32;20041;-92
2021/03/09 06:52:11;;;;;;;;;;;;;;;2.10;59.29;100316.47;4395943;32;28770;-93
2021/03/09 06:54:43;;;;;;;;;;;;;;;2.07;59.30;100316.44;4396670;32;19981;-93
2021/03/09 06:57:09;;;;;;;;;;;;;;;2.43;59.30;100310.84;4393828;32;20043;-90
2021/03/09 06:59:34;;;;;;;;;;;;;;;2.65;59.33;100314.47;4393522;32;20021;-92
2021/03/09 07:02:01;;;;;;;;;;;;;;;2.70;59.33;100316.22;4391603;32;19993;-91
2021/03/09 07:04:26;;;;;;;;;;;;;;;2.93;59.33;100321.56;4393625;32;20414;-91
2021/03/09 07:06:51;;;;;;;;;;;;;;;2.85;59.33;100315.50;4392479;32;31191;-91
2021/03/09 07:09:17;;;;;;;;;;;;;;;3.14;59.35;100318.28;4404814;32;20048;-91
2021/03/09 07:11:42;;;;;;;;;;;;;;;3.34;59.36;100311.56;4406794;32;26555;-91
2021/03/09 07:14:08;;;;;;;;;;;;;;;3.39;59.37;100307.31;4419549;32;20350;-92
2021/03/09 07:16:33;;;;;;;;;;;;;;;3.62;59.38;100310.00;4421595;32;20028;-92
2021/03/09 07:18:58;;;;;;;;;;;;;;;3.60;59.37;100309.16;4408192;32;20352;-91
2021/03/09 07:21:25;;;;;;;;;;;;;;;3.75;59.38;100315.19;4407986;32;29609;-90
2021/03/09 07:23:50;;;;;;;;;;;;;;;3.93;59.39;100313.56;4408370;32;20342;-92
2021/03/09 07:26:16;;;;;;;;;;;;;;;3.99;59.40;100310.16;4421086;32;23581;-92
2021/03/09 07:28:41;;;;;;;;;;;;;;;4.03;59.40;100322.22;4408796;32;19989;-92
2021/03/09 07:31:06;;;;;;;;;;;;;;;4.04;59.40;100318.78;4408818;32;20314;-92
2021/03/09 07:33:32;;;;;;;;;;;;;;;4.16;59.41;100312.78;4408413;32;20001;-91
2021/03/09 07:35:57;;;;;;;;;;;;;;;4.15;59.41;100314.50;4407497;32;91525;-92
2021/03/09 07:38:23;;;;;;;;;;;;;;;4.38;59.42;100313.72;4408037;32;20009;-92
2021/03/09 07:40:48;;;;;;;;;;;;;;;4.40;59.42;100310.28;4407783;32;20357;-91
2021/03/09 07:43:13;;;;;;;;;;;;;;;4.52;59.43;100304.28;4380194;32;20044;-92
2021/03/09 07:45:39;;;;;;;;;;;;;;;4.52;59.42;100306.88;4380224;32;20013;-93
2021/03/09 07:48:08;;;;;;;;;;;;;;;4.50;59.44;100309.44;4379604;32;26760;-92
2021/03/09 07:50:38;;;;;;;;;;;;;;;4.62;59.43;100306.00;4380251;32;19997;-92
2021/03/09 07:53:12;;;;;;;;;;;;;;;4.83;59.44;100306.03;4392851;32;19996;-91
2021/03/09 07:55:41;;;;;;;;;;;;;;;5.04;59.46;100304.31;4404903;32;20438;-92
2021/03/09 07:58:16;;;;;;;;;;;;;;;5.01;59.45;100301.72;4393094;32;19993;-93
2021/03/09 08:01:01;;;;;;;;;;;;;;;5.40;59.48;100311.13;4405440;32;20286;-92
2021/03/09 08:03:44;;;;;;;;;;;;;;;5.36;59.47;100309.41;4380418;32;19993;-92
2021/03/09 08:06:10;;;;;;;;;;;;;;;5.44;59.48;100305.06;4380557;32;20001;-92
2021/03/09 08:08:35;;;;;;;;;;;;;;;5.52;59.48;100305.94;4383139;32;19961;-92
2021/03/09 08:11:01;;;;;;;;;;;;;;;5.76;59.49;100294.66;4409551;32;19997;-92
2021/03/09 08:13:26;;;;;;;;;;;;;;;5.78;59.50;100296.38;4400689;32;20007;-92
2021/03/09 08:15:55;;;;;;;;;;;;;;;5.77;59.50;100296.38;4400248;32;20380;-92
2021/03/09 08:18:21;;;;;;;;;;;;;;;5.89;59.50;100295.47;4400617;32;20047;-93
2021/03/09 08:20:46;;;;;;;;;;;;;;;6.13;59.52;100288.47;4410001;32;20005;-92
2021/03/09 08:23:30;;;;;;;;;;;;;;;6.33;59.53;100290.97;4397763;32;19989;-93
2021/03/09 08:25:55;;;;;;;;;;;;;;;6.14;59.52;100291.94;4397779;32;20542;-91
2021/03/09 08:28:39;;;;;;;;;;;;;;;6.20;59.52;100293.66;4384839;32;28824;-92
2021/03/09 08:31:14;;;;;;;;;;;;;;;6.07;59.52;100296.28;4384953;32;19989;-93
2021/03/09 08:33:39;;;;;;;;;;;;;;;6.30;59.53;100297.87;4397617;32;19977;-92
2021/03/09 08:36:20;;;;;;;;;;;;;;;6.52;59.54;100288.25;4384854;32;20243;-93
2021/03/09 08:39:04;;;;;;;;;;;;;;;6.63;59.54;100289.06;4410996;32;20033;-92
2021/03/09 08:41:42;;;;;;;;;;;;;;;6.73;59.56;100283.78;4397369;32;19997;-93
2021/03/09 08:44:16;;;;;;;;;;;;;;;6.76;59.55;100277.72;4397876;32;19985;-92
2021/03/09 08:47:03;;;;;;;;;;;;;;;6.73;59.56;100281.22;4397477;32;20375;-93
2021/03/09 08:49:34;;;;;;;;;;;;;;;6.64;59.55;100283.03;4397301;32;19994;-92
2021/03/09 08:52:00;;;;;;;;;;;;;;;6.66;59.55;100279.53;4400581;32;19991;-90
2021/03/09 08:54:26;;;;;;;;;;;;;;;6.81;59.56;100269.94;4384903;32;20028;-93
2021/03/09 08:56:51;;;;;;;;;;;;;;;6.89;59.56;100278.50;4384834;32;20008;-91
2021/03/09 08:59:20;;;;;;;;;;;;;;;6.78;59.55;100260.47;4384886;32;20440;-93
2021/03/09 09:01:45;;;;;;;;;;;;;;;6.89;59.56;100270.75;4384619;32;20000;-92
2021/03/09 09:04:14;;;;;;;;;;;;;;;7.32;59.58;100264.25;4383693;32;20954;-93
2021/03/09 09:06:40;;;;;;;;;;;;;;;7.38;59.58;100266.81;4397039;32;19993;-93
2021/03/09 09:09:05;;;;;;;;;;;;;;;7.33;59.59;100275.47;4390723;32;20019;-93
2021/03/09 09:11:30;;;;;;;;;;;;;;;7.24;59.58;100273.84;4400338;32;20382;-93
2021/03/09 09:13:55;;;;;;;;;;;;;;;7.12;59.58;100262.75;4412604;32;20050;-90
2021/03/09 09:16:21;;;;;;;;;;;;;;;7.47;59.60;100265.81;4424791;32;20006;-92
2021/03/09 09:18:46;;;;;;;;;;;;;;;7.77;59.62;100255.97;4399242;32;20013;-93
2021/03/09 09:21:12;;;;;;;;;;;;;;;8.11;59.63;100249.47;4398310;32;20551;-92
2021/03/09 09:23:37;;;;;;;;;;;;;;;8.27;59.64;100255.28;4396530;32;19996;-93
2021/03/09 09:26:02;;;;;;;;;;;;;;;8.32;59.65;100251.78;4396283;32;20013;-93
2021/03/09 09:28:28;;;;;;;;;;;;;;;8.32;59.65;100251.78;4396105;32;20264;-92
2021/03/09 09:30:54;;;;;;;;;;;;;;;8.45;59.65;100244.69;4396289;32;19993;-92
2021/03/09 09:33:19;;;;;;;;;;;;;;;8.46;59.66;100248.13;4408814;32;20302;-91
2021/03/09 09:35:46;;;;;;;;;;;;;;;8.45;59.65;100241.22;4395889;32;20031;-92
2021/03/09 09:38:11;;;;;;;;;;;;;;;8.42;59.64;100238.69;4408923;32;20001;-93
2021/03/09 09:40:37;;;;;;;;;;;;;;;8.49;59.65;100238.56;4396390;32;20321;-92
2021/03/09 09:43:07;;;;;;;;;;;;;;;8.65;59.66;100244.37;4409214;32;20015;-92
2021/03/09 09:45:32;;;;;;;;;;;;;;;8.66;59.66;100227.06;4396439;32;20342;-94
2021/03/09 09:48:01;;;;;;;;;;;;;;;8.77;59.67;100239.00;4396725;32;20655;-93
2021/03/09 09:50:26;;;;;;;;;;;;;;;8.81;59.67;100234.59;4396271;32;20042;-93
2021/03/09 09:52:54;;;;;;;;;;;;;;;8.61;59.66;100234.91;4396959;32;20008;-95
2021/03/09 09:55:20;;;;;;;;;;;;;;;8.84;59.68;100230.19;4422182;32;19993;-93
2021/03/09 09:57:49;;;;;;;;;;;;;;;8.73;59.66;100234.69;4409154;32;20690;-93
2021/03/09 10:00:15;;;;;;;;;;;;;;;8.81;59.66;100230.25;4396476;32;20027;-92
2021/03/09 10:02:40;;;;;;;;;;;;;;;8.77;59.67;100231.19;4397602;32;19992;-95
2021/03/09 10:05:05;;;;;;;;;;;;;;;8.78;59.67;100224.28;4398176;32;20425;-94
2021/03/09 10:07:31;;;;;;;;;;;;;;;8.69;59.66;100224.41;4396340;32;20095;-94
2021/03/09 10:10:00;;;;;;;;;;;;;;;8.64;59.66;100221.88;4405176;32;20023;-94
2021/03/09 10:12:32;;;;;;;;;;;;;;;8.78;59.67;100227.72;4396987;32;19967;-94
2021/03/09 10:14:57;;;;;;;;;;;;;;;8.87;59.67;100214.56;4397811;32;20014;-96
2021/03/09 10:17:22;;;;;;;;;;;;;;;8.70;59.66;100214.00;4398900;32;19993;-93
2021/03/09 10:19:48;;;;;;;;;;;;;;;8.74;59.67;100213.06;4409447;32;20019;-93
2021/03/09 10:22:19;;;;;;;;;;;;;;;8.90;59.68;100209.31;4396029;32;23733;-93
2021/03/09 10:24:45;;;;;;;;;;;;;;;9.14;59.69;100205.41;4397179;32;19988;-92
2021/03/09 10:27:14;;;;;;;;;;;;;;;9.38;59.70;100204.09;4397102;32;20580;-92
2021/03/09 10:29:39;;;;;;;;;;;;;;;9.56;59.70;100189.87;4398049;32;19985;-92
2021/03/09 10:32:05;;;;;;;;;;;;;;;9.54;59.71;100192.50;4396893;32;19991;-93
2021/03/09 10:34:37;;;;;;;;;;;;;;;9.58;59.71;100198.50;4395255;32;20005;-90
2021/03/09 10:37:03;;;;;;;;;;;;;;;9.84;59.72;100200.53;4395857;32;20007;-92
2021/03/09 10:39:29;;;;;;;;;;;;;;;9.99;59.74;100184.59;4398486;32;19992;-92
2021/03/09 10:41:54;;;;;;;;;;;;;;;10.02;59.74;100187.13;4411725;32;19994;-94
2021/03/09 10:44:30;;;;;;;;;;;;;;;9.97;59.73;100178.59;4411355;32;27968;-93
2021/03/09 10:46:55;;;;;;;;;;;;;;;9.94;59.73;100180.41;4412181;32;20001;-94
2021/03/09 10:49:20;;;;;;;;;;;;;;;10.12;59.75;100172.16;4411706;32;19985;-94
2021/03/09 10:51:45;;;;;;;;;;;;;;;10.28;59.75;100173.53;4411748;32;20366;-94
2021/03/09 10:54:11;;;;;;;;;;;;;;;10.33;59.76;100178.63;4425781;32;19985;-93
2021/03/09 10:56:36;;;;;;;;;;;;;;;10.07;59.74;100174.88;4412925;32;19988;-93
2021/03/09 10:59:02;;;;;;;;;;;;;;;10.25;59.76;100170.16;4413231;32;20298;-93
2021/03/09 11:01:29;;;;;;;;;;;;;;;10.15;59.74;100166.88;4412901;32;19993;-95
2021/03/09 11:03:54;;;;;;;;;;;;;;;9.99;59.74;100171.59;4412970;32;20054;-94
2021/03/09 11:06:20;;;;;;;;;;;;;;;9.94;59.74;100178.66;4412783;32;19993;-94
2021/03/09 11:08:45;;;;;;;;;;;;;;;9.92;59.73;100167.41;4413957;32;24595;-93
2021/03/09 11:11:10;;;;;;;;;;;;;;;10.00;59.74;100165.50;4413155;32;19993;-94
2021/03/09 11:13:35;;;;;;;;;;;;;;;9.96;59.74;100163.00;4412422;32;19999;-93
2021/03/09 11:16:00;;;;;;;;;;;;;;;9.72;59.73;100161.81;4412423;32;20134;-92
2021/03/09 11:18:26;;;;;;;;;;;;;;;9.47;59.71;100154.56;4411445;32;21876;-92
2021/03/09 11:20:52;;;;;;;;;;;;;;;9.56;59.71;100155.22;4411092;32;24086;-91
2021/03/09 11:23:18;;;;;;;;;;;;;;;9.75;59.73;100148.75;4411104;32;19996;-92
2021/03/09 11:25:43;;;;;;;;;;;;;;;9.89;59.73;100146.69;4411262;32;20047;-93
2021/03/09 11:28:08;;;;;;;;;;;;;;;9.98;59.74;100136.09;4410493;32;21446;-91
2021/03/09 11:30:33;;;;;;;;;;;;;;;10.19;59.75;100137.31;4411063;32;20024;-92
2021/03/09 11:32:59;;;;;;;;;;;;;;;10.31;59.75;100133.59;4410973;32;20118;-93
2021/03/09 11:35:24;;;;;;;;;;;;;;;10.50;59.77;100137.44;4423857;32;20282;-93
2021/03/09 11:37:49;;;;;;;;;;;;;;;10.37;59.76;100131.69;4411381;32;19996;-92
2021/03/09 11:40:14;;;;;;;;;;;;;;;10.58;59.77;100127.69;4411186;32;19973;-92
2021/03/09 11:42:40;;;;;;;;;;;;;;;10.55;59.78;100124.31;4424458;32;20289;-91
2021/03/09 11:45:05;;;;;;;;;;;;;;;10.55;59.78;100127.75;4423511;32;20055;-93
2021/03/09 11:47:31;;;;;;;;;;;;;;;10.45;59.76;100118.50;4410545;32;20023;-92
2021/03/09 11:49:56;;;;;;;;;;;;;;;10.52;59.77;100113.97;4424763;32;19995;-93
2021/03/09 11:52:21;;;;;;;;;;;;;;;10.52;59.76;100101.81;4411477;32;20018;-92
2021/03/09 11:54:46;;;;;;;;;;;;;;;10.60;59.77;100099.00;4411104;32;20023;-93
2021/03/09 11:57:11;;;;;;;;;;;;;;;10.65;59.78;100107.56;4411704;32;20016;-92
2021/03/09 11:59:37;;;;;;;;;;;;;;;10.68;59.78;100099.66;4410700;32;19985;-93
2021/03/09 12:02:02;;;;;;;;;;;;;;;10.72;59.78;100102.16;4410758;32;20330;-92
2021/03/09 12:04:27;;;;;;;;;;;;;;;10.70;59.79;100093.53;4411030;32;19999;-92
2021/03/09 12:06:58;;;;;;;;;;;;;;;10.84;59.79;100093.12;4411027;32;20003;-93
2021/03/09 12:09:24;;;;;;;;;;;;;;;10.71;59.78;100092.63;4411349;32;20033;-94
2021/03/09 12:11:49;;;;;;;;;;;;;;;10.67;59.77;100088.41;4411275;32;20004;-92
2021/03/09 12:14:14;;;;;;;;;;;;;;;10.56;59.78;100084.34;4410456;32;19989;-92
2021/03/09 12:16:40;;;;;;;;;;;;;;;10.51;59.77;100086.25;4410497;32;19980;-93
2021/03/09 12:19:05;;;;;;;;;;;;;;;10.56;59.78;100080.00;4410124;32;20400;-92
2021/03/09 12:21:33;;;;;;;;;;;;;;;10.71;59.78;100071.78;4410005;32;20022;-92
2021/03/09 12:23:58;;;;;;;;;;;;;;;10.89;59.79;100072.19;4410183;32;20001;-91
2021/03/09 12:26:23;;;;;;;;;;;;;;;11.01;59.80;100066.63;4409946;32;20038;-92
2021/03/09 12:28:48;;;;;;;;;;;;;;;10.96;59.80;100065.91;4409929;32;19992;-91
2021/03/09 12:31:14;;;;;;;;;;;;;;;10.82;59.79;100062.81;4411005;32;20477;-92
2021/03/09 12:33:39;;;;;;;;;;;;;;;10.85;59.79;100060.13;4436297;32;32644;-92
2021/03/09 12:36:04;;;;;;;;;;;;;;;11.12;59.80;100051.53;4409583;32;23353;-92
2021/03/09 12:38:33;;;;;;;;;;;;;;;10.98;59.79;100056.28;4422563;32;20036;-91
2021/03/09 12:40:58;;;;;;;;;;;;;;;10.93;59.79;100064.25;4410251;32;20017;-91
2021/03/09 12:43:23;;;;;;;;;;;;;;;10.76;59.79;100049.09;4410272;32;20066;-92
2021/03/09 12:45:48;;;;;;;;;;;;;;;10.64;59.78;100056.38;4410036;32;20063;-92
2021/03/09 12:48:14;;;;;;;;;;;;;;;10.51;59.77;100052.41;4409352;32;20020;-92